Time,TemperatureF,DewpointF,PressureIn,WindDirection,WindDirectionDegrees,WindSpeedMPH,WindSpeedGustMPH,Humidity,HourlyPrecipIn,Conditions,Clouds,dailyrainin,SolarRadiationWatts/m^2,SoftwareType,DateUTC
2013-04-01 17:43:00,45.3,39.2,30.12,NNE,22,3.3,3.3,79,0.00,CLR,OVC,0.00,0.0,WeatherDisplay:10.37,2013-04-01 22:43:00,
2013-04-01 17:44:00,45.1,39.0,30.12,NE,45,6.9,6.9,79,0.00,CLR,OVC,0.00,0.0,WeatherDisplay:10.37,2013-04-01 22:44:00,
2013-04-01 17:49:00,45.5,37.3,30.09,NNE,22,8.1,8.1,73,0.00,CLR,OVC,0.00,0.0,WeatherDisplay:10.37,2013-04-01 22:49:00,
2013-04-01 17:54:00,45.9,37.7,30.09,North,0,2.3,2.3,73,0.00,CLR,OVC,0.00,0.0,WeatherDisplay:10.37,2013-04-01 22:54:00,
2013-04-01 17:59:00,46.0,36.4,30.09,North,0,4.6,4.6,69,0.00,CLR,OVC,0.00,0.0,WeatherDisplay:10.37,2013-04-01 22:59:00,
2013-04-01 18:04:00,46.2,35.9,30.12,NNW,338,5.8,5.8,67,0.00,CLR,OVC,0.00,0.0,WeatherDisplay:10.37,2013-04-01 23:04:00,
2013-04-01 18:09:00,46.0,35.3,30.12,North,0,5.8,5.8,66,0.00,CLR,OVC,0.00,0.0,WeatherDisplay:10.37,2013-04-01 23:09:00,
2013-04-01 18:14:00,45.9,33.6,30.12,North,0,5.8,5.8,62,0.00,CLR,OVC,0.00,0.0,WeatherDisplay:10.37,2013-04-01 23:14:00,
2013-04-01 18:19:00,45.5,33.6,30.12,North,0,4.6,4.6,63,0.00,CLR,OVC,0.00,0.0,WeatherDisplay:10.37,2013-04-01 23:19:00,
2013-04-01 18:24:00,45.3,32.7,30.12,NE,45,5.8,5.8,61,0.00,CLR,OVC,0.00,0.0,WeatherDisplay:10.37,2013-04-01 23:24:00,
2013-04-01 18:29:00,45.1,32.9,30.12,North,0,5.8,5.8,62,0.00,CLR,OVC,0.00,0.0,WeatherDisplay:10.37,2013-04-01 23:29:00,
2013-04-01 18:34:00,45.3,33.1,30.12,North,0,2.6,2.6,62,0.00,CLR,OVC,0.00,0.0,WeatherDisplay:10.37,2013-04-01 23:34:00,
2013-04-01 18:39:00,45.5,32.8,30.12,NNW,338,5.8,5.8,61,0.00,CLR,OVC,0.00,0.0,WeatherDisplay:10.37,2013-04-01 23:39:00,
2013-04-01 18:44:00,45.3,32.2,30.12,North,0,6.9,6.9,60,0.00,CLR,OVC,0.00,0.0,WeatherDisplay:10.37,2013-04-01 23:44:00,
2013-04-01 18:49:00,45.1,32.1,30.15,North,0,3.5,3.8,60,0.00,CLR,OVC,0.00,0.0,WeatherDisplay:10.37,2013-04-01 23:49:00,
2013-04-01 18:54:00,45.0,32.3,30.15,North,0,4.6,4.6,61,0.00,CLR,OVC,0.00,0.0,WeatherDisplay:10.37,2013-04-01 23:54:00,
2013-04-01 18:59:00,44.8,32.1,30.15,NNE,22,3.5,3.5,61,0.00,CLR,OVC,0.00,0.0,WeatherDisplay:10.37,2013-04-01 23:59:00,
2013-04-01 19:04:00,44.4,32.2,30.12,North,0,5.8,5.8,62,0.00,CLR,OVC,0.00,0.0,WeatherDisplay:10.37,2013-04-02 00:04:00,
2013-04-01 19:09:00,44.2,31.6,30.12,NNE,22,6.9,6.9,61,0.00,CLR,OVC,0.00,0.0,WeatherDisplay:10.37,2013-04-02 00:09:00,
2013-04-01 19:14:00,44.1,31.9,30.12,NNE,22,7.6,7.6,62,0.00,CLR,OVC,0.00,0.0,WeatherDisplay:10.37,2013-04-02 00:14:00,
2013-04-01 19:19:00,43.9,32.1,30.12,NE,45,5.8,5.8,63,0.00,CLR,OVC,0.00,0.0,WeatherDisplay:10.37,2013-04-02 00:19:00,
2013-04-01 19:24:00,43.5,32.5,30.12,NNW,338,3.5,3.5,65,0.00,CLR,OVC,0.00,0.0,WeatherDisplay:10.37,2013-04-02 00:24:00,
2013-04-01 19:30:00,43.3,31.6,30.12,NNE,22,4.6,4.6,63,0.00,CLR,OVC,0.00,0.0,WeatherDisplay:10.37,2013-04-02 00:30:00,
2013-04-01 19:35:00,43.1,32.1,30.12,NNE,13,2.0,5.0,65,0.00,CLR,OVC,0.00,0.0,WeatherDisplay:10.37,2013-04-02 00:35:00,
2013-04-01 19:40:00,42.8,31.5,30.12,NNE,22,5.8,5.8,64,0.00,CLR,OVC,0.00,0.0,WeatherDisplay:10.37,2013-04-02 00:40:00,
2013-04-01 19:45:00,42.8,31.1,30.12,North,0,5.8,5.8,63,0.00,CLR,OVC,0.00,0.0,WeatherDisplay:10.37,2013-04-02 00:45:00,
2013-04-01 19:50:00,42.8,31.5,30.09,NNE,22,5.8,5.8,64,0.00,CLR,OVC,0.00,0.0,WeatherDisplay:10.37,2013-04-02 00:50:00,
2013-04-01 19:55:00,42.4,31.5,30.09,NNW,338,3.1,3.1,65,0.00,CLR,OVC,0.00,0.0,WeatherDisplay:10.37,2013-04-02 00:55:00,
2013-04-01 20:00:00,42.4,31.9,30.09,NNE,22,4.6,4.6,66,0.00,CLR,OVC,0.00,0.0,WeatherDisplay:10.37,2013-04-02 01:00:00,
2013-04-01 20:05:00,42.3,31.7,30.12,NNE,22,2.3,2.3,66,0.00,CLR,OVC,0.00,0.0,WeatherDisplay:10.37,2013-04-02 01:05:00,
2013-04-01 20:10:00,42.1,31.5,30.12,NNE,22,3.5,3.5,66,0.00,CLR,OVC,0.00,0.0,WeatherDisplay:10.37,2013-04-02 01:10:00,
2013-04-01 20:15:00,42.3,31.7,30.12,North,0,4.6,4.6,66,0.00,CLR,OVC,0.00,0.0,WeatherDisplay:10.37,2013-04-02 01:15:00,
2013-04-01 20:20:00,42.1,31.5,30.12,NNW,338,4.6,4.6,66,0.00,CLR,OVC,0.00,0.0,WeatherDisplay:10.37,2013-04-02 01:20:00,
2013-04-01 20:25:00,42.3,31.7,30.12,NNW,338,3.5,3.5,66,0.00,CLR,OVC,0.00,0.0,WeatherDisplay:10.37,2013-04-02 01:25:00,
2013-04-01 20:30:00,42.3,31.7,30.12,North,0,3.6,3.6,66,0.00,CLR,OVC,0.00,0.0,WeatherDisplay:10.37,2013-04-02 01:30:00,
2013-04-01 20:35:00,42.1,31.5,30.09,North,0,3.6,3.6,66,0.00,CLR,OVC,0.00,0.0,WeatherDisplay:10.37,2013-04-02 01:35:00,
2013-04-01 20:40:00,42.1,31.9,30.09,NNW,338,5.8,5.8,67,0.00,CLR,OVC,0.00,0.0,WeatherDisplay:10.37,2013-04-02 01:40:00,
2013-04-01 20:45:00,42.1,31.9,30.09,North,0,5.8,5.8,67,0.00,CLR,OVC,0.00,0.0,WeatherDisplay:10.37,2013-04-02 01:45:00,
2013-04-01 20:50:00,42.1,31.9,30.12,NNE,22,3.5,3.5,67,0.00,CLR,OVC,0.00,0.0,WeatherDisplay:10.37,2013-04-02 01:50:00,
2013-04-01 20:55:00,41.9,32.1,30.12,North,0,4.6,4.6,68,0.00,CLR,OVC,0.00,0.0,WeatherDisplay:10.37,2013-04-02 01:55:00,
2013-04-01 21:00:00,41.9,31.7,30.12,NNW,338,4.6,4.6,67,0.00,CLR,OVC,0.00,0.0,WeatherDisplay:10.37,2013-04-02 02:00:00,
2013-04-01 21:05:00,41.9,31.7,30.12,North,0,3.6,3.6,67,0.00,CLR,OVC,0.00,0.0,WeatherDisplay:10.37,2013-04-02 02:05:00,
2013-04-01 21:10:00,41.7,31.6,30.12,North,0,5.8,5.8,67,0.00,CLR,OVC,0.00,0.0,WeatherDisplay:10.37,2013-04-02 02:10:00,
2013-04-01 21:15:00,41.7,31.2,30.12,NNE,22,5.6,5.6,66,0.00,CLR,OVC,0.00,0.0,WeatherDisplay:10.37,2013-04-02 02:15:00,
2013-04-01 21:20:00,41.7,31.6,30.12,NNE,22,4.6,4.6,67,0.00,CLR,OVC,0.00,0.0,WeatherDisplay:10.37,2013-04-02 02:20:00,
2013-04-01 21:25:00,41.7,31.2,30.12,NNE,22,5.8,5.8,66,0.00,CLR,OVC,0.00,0.0,WeatherDisplay:10.37,2013-04-02 02:25:00,
2013-04-01 21:30:00,41.5,30.6,30.12,NNW,338,6.0,6.0,65,0.00,CLR,OVC,0.00,0.0,WeatherDisplay:10.37,2013-04-02 02:30:00,
2013-04-01 21:35:00,41.5,30.6,30.12,North,0,4.6,4.6,65,0.00,CLR,OVC,0.00,0.0,WeatherDisplay:10.37,2013-04-02 02:35:00,
2013-04-01 21:40:00,41.5,29.9,30.12,North,0,6.9,6.9,63,0.00,CLR,OVC,0.00,0.0,WeatherDisplay:10.37,2013-04-02 02:40:00,
2013-04-01 21:45:00,41.4,29.7,30.12,North,0,8.1,8.1,63,0.00,CLR,OVC,0.00,0.0,WeatherDisplay:10.37,2013-04-02 02:45:00,
2013-04-01 21:50:00,41.0,29.7,30.12,North,0,8.1,8.1,64,0.00,CLR,OVC,0.00,0.0,WeatherDisplay:10.37,2013-04-02 02:50:00,
2013-04-01 21:55:00,40.6,29.8,30.12,NNE,22,6.9,6.9,65,0.00,CLR,OVC,0.00,0.0,WeatherDisplay:10.37,2013-04-02 02:55:00,
2013-04-01 22:00:00,40.6,29.8,30.12,NNE,22,5.8,5.8,65,0.00,CLR,OVC,0.00,0.0,WeatherDisplay:10.37,2013-04-02 03:00:00,
2013-04-01 22:05:00,40.6,29.8,30.15,NNW,338,8.1,8.1,65,0.00,CLR,OVC,0.00,0.0,WeatherDisplay:10.37,2013-04-02 03:05:00,
2013-04-01 22:10:00,40.5,30.0,30.15,North,0,5.8,5.8,66,0.00,CLR,OVC,0.00,0.0,WeatherDisplay:10.37,2013-04-02 03:10:00,
2013-04-01 22:15:00,40.5,30.0,30.15,North,0,7.1,7.1,66,0.00,CLR,OVC,0.00,0.0,WeatherDisplay:10.37,2013-04-02 03:15:00,
2013-04-01 22:20:00,40.3,30.2,30.15,North,0,5.8,5.8,67,0.00,CLR,OVC,0.00,0.0,WeatherDisplay:10.37,2013-04-02 03:20:00,
2013-04-01 22:25:00,40.3,30.2,30.15,NNE,22,8.1,8.1,67,0.00,CLR,OVC,0.00,0.0,WeatherDisplay:10.37,2013-04-02 03:25:00,
2013-04-01 22:30:00,40.3,30.6,30.15,NNE,22,3.5,3.5,68,0.00,CLR,OVC,0.00,0.0,WeatherDisplay:10.37,2013-04-02 03:30:00,
2013-04-01 22:35:00,40.5,30.4,30.15,North,0,8.1,8.1,67,0.00,CLR,OVC,0.00,0.0,WeatherDisplay:10.37,2013-04-02 03:35:00,
2013-04-01 22:40:00,40.5,30.0,30.15,NNE,22,5.8,5.8,66,0.00,CLR,OVC,0.00,0.0,WeatherDisplay:10.37,2013-04-02 03:40:00,
2013-04-01 22:45:00,40.5,29.2,30.15,NE,45,8.1,8.1,64,0.00,CLR,OVC,0.00,0.0,WeatherDisplay:10.37,2013-04-02 03:45:00,
2013-04-01 22:50:00,40.6,29.4,30.12,NNE,22,9.2,9.2,64,0.00,CLR,OVC,0.00,0.0,WeatherDisplay:10.37,2013-04-02 03:50:00,
2013-04-01 22:55:00,40.6,29.0,30.12,North,0,10.4,10.4,63,0.00,CLR,OVC,0.00,0.0,WeatherDisplay:10.37,2013-04-02 03:55:00,
2013-04-01 23:00:00,40.6,28.6,30.12,NNE,13,6.0,10.0,62,0.00,CLR,OVC,0.00,0.0,WeatherDisplay:10.37,2013-04-02 04:00:00,
2013-04-01 23:05:00,40.6,28.6,30.15,NNE,22,10.4,10.4,62,0.00,CLR,OVC,0.00,0.0,WeatherDisplay:10.37,2013-04-02 04:05:00,
2013-04-01 23:10:00,40.5,28.1,30.15,NNE,22,9.2,9.2,61,0.00,CLR,OVC,0.00,0.0,WeatherDisplay:10.37,2013-04-02 04:10:00,
2013-04-01 23:15:00,40.5,28.1,30.15,NE,45,8.1,8.1,61,0.00,CLR,OVC,0.00,0.0,WeatherDisplay:10.37,2013-04-02 04:15:00,
2013-04-01 23:20:00,40.3,28.3,30.15,North,0,4.3,4.3,62,0.00,CLR,OVC,0.00,0.0,WeatherDisplay:10.37,2013-04-02 04:20:00,
2013-04-01 23:25:00,40.3,27.9,30.15,NE,45,6.0,6.0,61,0.00,CLR,OVC,0.00,0.0,WeatherDisplay:10.37,2013-04-02 04:25:00,
2013-04-01 23:30:00,40.3,27.9,30.15,North,0,4.0,4.0,61,0.00,CLR,OVC,0.00,0.0,WeatherDisplay:10.37,2013-04-02 04:30:00,
2013-04-01 23:35:00,40.3,27.9,30.15,North,0,4.6,4.6,61,0.00,CLR,OVC,0.00,0.0,WeatherDisplay:10.37,2013-04-02 04:35:00,
2013-04-01 23:40:00,40.3,27.9,30.15,North,0,5.8,5.8,61,0.00,CLR,OVC,0.00,0.0,WeatherDisplay:10.37,2013-04-02 04:40:00,
2013-04-01 23:45:00,40.3,27.9,30.15,NE,45,5.8,5.8,61,0.00,CLR,OVC,0.00,0.0,WeatherDisplay:10.37,2013-04-02 04:45:00,
2013-04-01 23:50:00,40.3,27.9,30.12,NNW,338,5.8,5.8,61,0.00,CLR,OVC,0.00,0.0,WeatherDisplay:10.37,2013-04-02 04:50:00,
2013-04-01 23:55:00,40.3,27.9,30.12,NNE,22,8.1,8.1,61,0.00,CLR,OVC,0.00,0.0,WeatherDisplay:10.37,2013-04-02 04:55:00,